createdAt,value
2023-05-19T00:01:17.458Z,73.41
2023-05-19T00:03:52.748Z,73.27
2023-05-19T00:06:24.996Z,73.92
2023-05-19T00:08:57.664Z,74.21
2023-05-19T00:11:26.483Z,74.81
2023-05-19T00:13:59.986Z,74.11
2023-05-19T00:16:31.002Z,74.83
2023-05-19T00:19:00.193Z,74.71
2023-05-19T00:21:27.656Z,74.99
2023-05-19T00:23:54.245Z,75.05
2023-05-19T00:26:22.728Z,75.22
2023-05-19T00:28:49.822Z,75.90
2023-05-19T00:31:16.782Z,75.70
2023-05-19T00:33:43.262Z,75.81
2023-05-19T00:36:09.885Z,75.87
2023-05-19T00:38:37.422Z,76.46
2023-05-19T00:41:06.004Z,76.26
2023-05-19T00:43:35.948Z,76.34
2023-05-19T00:46:02.957Z,76.85
2023-05-19T00:48:29.500Z,76.38
2023-05-19T00:51:04.711Z,76.83
2023-05-19T00:53:35.469Z,76.46
2023-05-19T00:56:03.155Z,77.00
2023-05-19T00:58:32.597Z,77.19
2023-05-19T01:01:04.376Z,76.90
2023-05-19T01:03:32.559Z,77.14
2023-05-19T01:06:01.755Z,77.22
2023-05-19T01:08:31.628Z,77.53
2023-05-19T01:10:58.253Z,77.86
2023-05-19T01:13:25.163Z,77.34
2023-05-19T01:16:07.569Z,78.48
2023-05-19T01:19:10.937Z,77.81
2023-05-19T01:24:45.398Z,78.95
2023-05-19T01:27:15.146Z,79.11
2023-05-19T01:30:07.910Z,79.05
2023-05-19T01:32:35.881Z,79.34
2023-05-19T01:35:05.284Z,79.32
2023-05-19T01:37:34.328Z,79.59
2023-05-19T01:40:01.285Z,79.68
2023-05-19T01:42:30.093Z,79.87
2023-05-19T01:44:57.527Z,80.06
2023-05-19T01:47:24.424Z,80.41
2023-05-19T01:49:50.990Z,80.63
2023-05-19T01:52:17.469Z,80.46
2023-05-19T01:54:43.967Z,80.83
2023-05-19T01:57:29.452Z,80.44
2023-05-19T02:00:52.309Z,80.28
2023-05-19T02:03:48.334Z,80.92
2023-05-19T02:06:40.825Z,81.13
2023-05-19T02:09:23.319Z,81.21
2023-05-19T02:12:00.379Z,81.32
2023-05-19T02:14:35.457Z,81.39
2023-05-19T02:17:04.784Z,82.27
2023-05-19T02:19:34.323Z,81.55
2023-05-19T02:22:01.020Z,81.92
2023-05-19T02:24:27.559Z,82.23
2023-05-19T02:26:54.426Z,82.54
2023-05-19T02:29:21.559Z,82.69
2023-05-19T02:31:48.600Z,82.30
2023-05-19T02:34:15.136Z,82.37
2023-05-19T02:36:45.402Z,83.07
2023-05-19T02:39:12.288Z,82.84
2023-05-19T02:41:39.041Z,82.90
2023-05-19T02:44:05.861Z,83.17
2023-05-19T02:46:32.637Z,83.12
2023-05-19T02:48:59.504Z,83.42
2023-05-19T02:51:26.071Z,82.81
2023-05-19T02:53:52.555Z,83.20
2023-05-19T02:56:19.024Z,83.97
2023-05-19T02:58:45.474Z,84.52
2023-05-19T03:01:12.148Z,84.06
2023-05-19T03:03:38.737Z,84.24
2023-05-19T03:06:08.745Z,84.67
2023-05-19T03:08:36.322Z,84.65
2023-05-19T03:11:03.526Z,84.80
2023-05-19T03:13:30.024Z,85.02
2023-05-19T03:15:58.805Z,85.26
2023-05-19T03:18:26.831Z,85.56
2023-05-19T03:20:54.163Z,85.28
2023-05-19T03:23:22.259Z,85.24
2023-05-19T03:25:48.797Z,85.14
2023-05-19T03:28:15.625Z,85.06
2023-05-19T03:30:42.971Z,84.68
2023-05-19T03:33:09.586Z,85.39
2023-05-19T03:35:36.184Z,85.21
2023-05-19T03:38:02.657Z,85.64
2023-05-19T03:40:29.116Z,85.07
2023-05-19T03:42:55.731Z,85.10
2023-05-19T03:45:22.190Z,85.46
2023-05-19T03:47:48.682Z,85.54
2023-05-19T03:50:15.199Z,85.57
2023-05-19T03:52:49.361Z,85.09
2023-05-19T03:55:16.381Z,85.37
2023-05-19T03:57:45.692Z,85.66
2023-05-19T04:00:12.874Z,86.27
2023-05-19T04:02:40.816Z,86.18
2023-05-19T04:05:08.583Z,86.38
2023-05-19T04:07:35.054Z,85.97
2023-05-19T04:10:04.873Z,86.60
2023-05-19T04:12:31.963Z,86.97
2023-05-19T04:15:00.424Z,86.59
2023-05-19T04:17:27.352Z,87.02
2023-05-19T04:19:54.271Z,87.46
2023-05-19T04:22:20.985Z,87.37
2023-05-19T04:24:48.651Z,87.18
2023-05-19T04:27:16.101Z,87.41
2023-05-19T04:29:42.591Z,87.43
2023-05-19T04:32:09.029Z,88.18
2023-05-19T04:34:35.938Z,87.95
2023-05-19T04:37:02.883Z,88.22
2023-05-19T04:39:29.403Z,88.33
2023-05-19T04:41:56.628Z,88.18
2023-05-19T04:44:23.157Z,88.76
2023-05-19T04:46:50.103Z,88.28
2023-05-19T04:49:16.636Z,88.76
2023-05-19T04:51:43.126Z,88.83
2023-05-19T04:54:10.194Z,89.44
2023-05-19T04:56:37.908Z,89.14
2023-05-19T04:59:04.502Z,89.18
2023-05-19T05:01:33.000Z,89.43
2023-05-19T05:04:01.118Z,89.58
2023-05-19T05:06:28.609Z,89.61
2023-05-19T05:08:55.286Z,89.76
2023-05-19T05:11:22.154Z,90.47
2023-05-19T05:13:49.043Z,89.97
2023-05-19T05:16:16.162Z,90.30
2023-05-19T05:18:44.791Z,89.92
2023-05-19T05:21:13.128Z,89.77
2023-05-19T05:23:39.866Z,90.65
2023-05-19T05:26:13.996Z,90.42
2023-05-19T05:28:41.590Z,91.20
2023-05-19T05:31:08.084Z,91.22
2023-05-19T05:33:34.742Z,90.07
2023-05-19T05:36:01.201Z,91.14
2023-05-19T05:38:27.765Z,90.17
2023-05-19T05:40:54.233Z,89.47
2023-05-19T05:43:20.735Z,89.67
2023-05-19T05:45:47.446Z,88.65
2023-05-19T05:48:14.327Z,88.16
2023-05-19T05:50:43.534Z,85.54
2023-05-19T05:53:16.074Z,84.03
2023-05-19T05:55:42.979Z,79.81
2023-05-19T05:58:11.176Z,76.73
2023-05-19T06:00:38.523Z,73.56
2023-05-19T06:03:05.813Z,71.44
2023-05-19T06:05:32.470Z,71.93
2023-05-19T06:07:59.258Z,72.20
2023-05-19T06:10:26.209Z,73.24
2023-05-19T06:12:52.824Z,73.75
2023-05-19T06:15:19.386Z,76.49
2023-05-19T06:17:45.963Z,78.84
2023-05-19T06:20:13.278Z,81.00
2023-05-19T06:22:40.032Z,81.56
2023-05-19T06:25:08.893Z,81.93
2023-05-19T06:27:35.838Z,81.95
2023-05-19T06:30:02.957Z,83.60
2023-05-19T06:32:30.011Z,84.02
2023-05-19T06:34:56.532Z,82.49
2023-05-19T06:37:23.891Z,82.56
2023-05-19T06:39:52.635Z,83.00
2023-05-19T06:42:24.040Z,83.02
2023-05-19T06:44:51.968Z,82.50
2023-05-19T06:47:18.910Z,81.10
2023-05-19T06:49:46.238Z,80.81
2023-05-19T06:52:12.739Z,80.68
2023-05-19T06:54:39.213Z,80.14
2023-05-19T06:57:05.853Z,79.36
2023-05-19T06:59:32.414Z,78.35
2023-05-19T07:01:59.049Z,78.46
2023-05-19T07:04:25.620Z,78.01
2023-05-19T07:06:52.346Z,77.98
2023-05-19T07:09:18.937Z,76.40
2023-05-19T07:11:45.821Z,76.15
2023-05-19T07:14:12.293Z,75.77
2023-05-19T07:16:38.858Z,75.28
2023-05-19T07:19:06.330Z,75.70
2023-05-19T07:21:32.785Z,75.07
2023-05-19T07:23:59.292Z,75.57
2023-05-19T07:26:26.741Z,73.03
2023-05-19T07:28:53.226Z,73.77
2023-05-19T07:31:19.748Z,72.40
2023-05-19T07:33:46.327Z,71.02
2023-05-19T07:36:12.814Z,70.21
2023-05-19T07:38:39.411Z,71.89
2023-05-19T07:41:06.735Z,70.78
2023-05-19T07:43:33.212Z,69.74
2023-05-19T07:45:59.729Z,70.12
2023-05-19T07:48:26.281Z,68.33
2023-05-19T07:50:53.207Z,67.54
2023-05-19T07:53:20.958Z,68.01
2023-05-19T07:55:47.481Z,67.58
2023-05-19T07:58:14.267Z,66.98
2023-05-19T08:00:45.823Z,67.15
2023-05-19T08:03:13.299Z,66.96
2023-05-19T08:05:40.628Z,65.23
2023-05-19T08:08:07.147Z,63.68
2023-05-19T08:10:33.949Z,62.31
2023-05-19T08:13:00.937Z,61.88
2023-05-19T08:15:29.202Z,62.67
2023-05-19T08:17:55.754Z,61.38
2023-05-19T08:20:23.047Z,60.74
2023-05-19T08:22:50.088Z,59.36
2023-05-19T08:25:16.658Z,58.94
2023-05-19T08:27:43.166Z,57.88
2023-05-19T08:30:10.224Z,57.94
2023-05-19T08:32:36.718Z,57.04
2023-05-19T08:35:04.332Z,56.71
2023-05-19T08:37:32.040Z,55.15
2023-05-19T08:40:00.791Z,56.28
2023-05-19T08:42:27.404Z,54.52
2023-05-19T08:44:53.882Z,53.89
2023-05-19T08:47:20.741Z,53.26
2023-05-19T08:49:52.483Z,52.62
2023-05-19T08:52:47.835Z,53.49
2023-05-19T08:55:28.971Z,49.68
2023-05-19T08:57:56.725Z,50.02
2023-05-19T09:00:23.685Z,50.25
2023-05-19T09:03:00.245Z,49.33
2023-05-19T09:05:33.307Z,49.65
2023-05-19T09:08:02.693Z,49.71
2023-05-19T09:10:29.575Z,49.28
2023-05-19T09:12:56.197Z,49.51
2023-05-19T09:15:27.272Z,50.41
2023-05-19T09:18:11.656Z,50.14
2023-05-19T09:20:42.874Z,49.79
2023-05-19T09:23:16.809Z,49.97
2023-05-19T09:25:53.469Z,49.99
2023-05-19T09:28:28.069Z,49.64
2023-05-19T09:31:02.695Z,49.13
2023-05-19T09:33:30.005Z,48.39
2023-05-19T09:35:57.277Z,48.49
2023-05-19T09:38:27.848Z,48.21
2023-05-19T09:40:57.638Z,49.13
2023-05-19T09:43:24.224Z,46.53
2023-05-19T09:46:07.178Z,48.57
2023-05-19T09:48:36.990Z,47.88
2023-05-19T09:51:06.257Z,48.44
2023-05-19T09:53:34.368Z,46.29
2023-05-19T09:56:02.134Z,47.95
2023-05-19T09:58:34.797Z,46.55
2023-05-19T10:01:02.234Z,46.45
2023-05-19T10:03:29.823Z,47.52
2023-05-19T10:05:57.034Z,46.45
2023-05-19T10:08:26.544Z,46.88
2023-05-19T10:10:53.224Z,46.16
2023-05-19T10:13:21.373Z,47.82
2023-05-19T10:15:58.267Z,47.13
2023-05-19T10:18:27.362Z,47.21
2023-05-19T10:20:54.438Z,47.12
2023-05-19T10:23:21.144Z,46.32
2023-05-19T10:25:49.307Z,47.29
2023-05-19T10:28:18.484Z,46.04
2023-05-19T10:30:48.219Z,47.33
2023-05-19T10:33:18.156Z,46.75
2023-05-19T10:36:15.876Z,47.46
2023-05-19T10:38:48.641Z,45.75
2023-05-19T10:41:33.096Z,46.61
2023-05-19T10:44:00.259Z,45.24
2023-05-19T10:46:28.445Z,45.37
2023-05-19T10:48:55.780Z,45.44
2023-05-19T10:51:31.337Z,45.33
2023-05-19T10:53:58.928Z,44.64
2023-05-19T10:56:31.207Z,43.50
2023-05-19T10:58:57.719Z,45.84
2023-05-19T11:01:33.486Z,45.63
2023-05-19T11:04:11.022Z,44.63
2023-05-19T11:06:38.628Z,45.38
2023-05-19T11:09:15.873Z,44.60
2023-05-19T11:11:47.275Z,44.61
2023-05-19T11:14:17.060Z,44.07
2023-05-19T11:16:47.543Z,44.23
2023-05-19T11:19:25.500Z,42.91
2023-05-19T11:21:55.008Z,41.63
2023-05-19T11:24:38.447Z,42.18
2023-05-19T11:27:21.473Z,41.40
2023-05-19T11:29:49.109Z,40.47
2023-05-19T11:32:16.530Z,41.14
2023-05-19T11:34:45.828Z,41.29
2023-05-19T11:37:12.493Z,41.47
2023-05-19T11:39:40.328Z,40.88
2023-05-19T11:42:09.607Z,41.38
2023-05-19T11:44:36.498Z,40.95
2023-05-19T11:47:04.429Z,40.82
2023-05-19T11:49:31.459Z,39.91
2023-05-19T11:52:00.790Z,39.58
2023-05-19T11:54:32.294Z,38.87
2023-05-19T11:57:03.395Z,39.11
2023-05-19T11:59:35.857Z,38.18
2023-05-19T12:02:15.196Z,39.29
2023-05-19T12:04:41.796Z,37.55
2023-05-19T12:07:08.689Z,38.11
2023-05-19T12:09:35.752Z,37.31
2023-05-19T12:12:02.810Z,38.69
2023-05-19T12:14:31.139Z,37.35
2023-05-19T12:16:58.189Z,36.08
2023-05-19T12:19:25.925Z,36.14
2023-05-19T12:21:53.648Z,36.92
2023-05-19T12:24:20.654Z,36.58
2023-05-19T12:26:47.209Z,37.16
2023-05-19T12:29:13.924Z,38.59
2023-05-19T12:31:40.561Z,38.86
2023-05-19T12:34:07.166Z,39.96
2023-05-19T12:36:33.831Z,41.17
2023-05-19T12:39:00.721Z,40.82
2023-05-19T12:41:27.360Z,41.48
2023-05-19T12:43:56.690Z,42.15
2023-05-19T12:46:23.303Z,42.26
2023-05-19T12:48:49.875Z,41.92
2023-05-19T12:51:19.990Z,41.27
2023-05-19T12:53:47.391Z,39.75
2023-05-19T12:56:17.515Z,40.34
2023-05-19T12:58:45.949Z,39.83
2023-05-19T13:01:17.764Z,39.74
2023-05-19T13:03:44.594Z,41.08
2023-05-19T13:06:11.791Z,40.67
2023-05-19T13:08:41.585Z,39.07
2023-05-19T13:11:08.093Z,40.31
2023-05-19T13:13:34.566Z,39.02
2023-05-19T13:16:01.069Z,38.96
2023-05-19T13:18:27.667Z,38.93
2023-05-19T13:20:54.703Z,39.93
2023-05-19T13:23:21.223Z,39.87
2023-05-19T13:25:48.012Z,39.99
2023-05-19T13:28:14.524Z,39.17
2023-05-19T13:30:41.835Z,38.87
2023-05-19T13:33:08.638Z,39.42
2023-05-19T13:35:38.263Z,39.73
2023-05-19T13:38:06.786Z,40.04
2023-05-19T13:40:34.673Z,39.41
2023-05-19T13:43:04.680Z,40.05
2023-05-19T13:45:31.613Z,39.35
2023-05-19T13:47:58.338Z,39.91
2023-05-19T13:50:25.085Z,39.92
2023-05-19T13:52:52.010Z,40.46
2023-05-19T13:55:19.023Z,39.87
2023-05-19T13:57:45.511Z,38.46
2023-05-19T14:00:12.389Z,39.27
2023-05-19T14:02:39.796Z,38.68
2023-05-19T14:05:07.388Z,39.67
2023-05-19T14:07:35.138Z,38.18
2023-05-19T14:10:06.659Z,38.52
2023-05-19T14:12:44.921Z,38.67
2023-05-19T14:15:20.513Z,39.34
2023-05-19T14:17:48.953Z,38.18
2023-05-19T14:20:15.558Z,38.63
2023-05-19T14:22:42.066Z,36.66
2023-05-19T14:25:08.882Z,36.64
2023-05-19T14:27:35.513Z,38.12
2023-05-19T14:30:02.370Z,36.36
2023-05-19T14:32:30.404Z,36.77
2023-05-19T14:34:57.210Z,36.54
2023-05-19T14:37:24.134Z,36.28
2023-05-19T14:39:50.673Z,36.09
2023-05-19T14:42:17.152Z,35.79
2023-05-19T14:44:43.632Z,34.97
2023-05-19T14:47:11.369Z,36.27
2023-05-19T14:49:38.318Z,35.82
2023-05-19T14:52:04.997Z,36.49
2023-05-19T14:54:31.448Z,36.12
2023-05-19T14:56:57.979Z,35.75
2023-05-19T14:59:25.023Z,36.52
2023-05-19T15:01:51.497Z,36.33
2023-05-19T15:04:18.000Z,37.33
2023-05-19T15:06:46.413Z,37.68
2023-05-19T15:09:17.646Z,37.23
2023-05-19T15:11:44.187Z,37.97
2023-05-19T15:14:10.740Z,36.96
2023-05-19T15:16:37.233Z,34.88
2023-05-19T15:19:03.904Z,34.96
2023-05-19T15:21:31.216Z,35.29
2023-05-19T15:23:57.686Z,35.07
2023-05-19T15:26:24.218Z,35.56
2023-05-19T15:28:52.298Z,35.49
2023-05-19T15:31:18.983Z,35.51
2023-05-19T15:33:45.709Z,35.42
2023-05-19T15:36:16.328Z,35.47
2023-05-19T15:38:42.907Z,35.07
2023-05-19T15:41:10.108Z,36.53
2023-05-19T15:43:36.814Z,36.42
2023-05-19T15:46:04.928Z,35.15
2023-05-19T15:48:32.364Z,35.14
2023-05-19T15:50:59.742Z,35.60
2023-05-19T15:53:26.528Z,35.48
2023-05-19T15:55:53.054Z,35.83
2023-05-19T15:58:19.523Z,35.54
2023-05-19T16:00:46.106Z,34.54
2023-05-19T16:03:12.794Z,35.70
2023-05-19T16:05:39.462Z,35.19
2023-05-19T16:08:07.777Z,35.16
2023-05-19T16:10:35.608Z,34.95
2023-05-19T16:13:02.232Z,34.89
2023-05-19T16:15:28.706Z,34.91
2023-05-19T16:17:55.493Z,35.20
2023-05-19T16:20:26.666Z,35.51
2023-05-19T16:22:53.122Z,36.21
2023-05-19T16:25:20.089Z,35.02
2023-05-19T16:27:46.615Z,35.02
2023-05-19T16:30:13.705Z,35.87
2023-05-19T16:32:40.630Z,35.26
2023-05-19T16:35:07.565Z,35.55
2023-05-19T16:37:34.689Z,36.42
2023-05-19T16:40:01.278Z,35.34
2023-05-19T16:42:28.367Z,34.41
2023-05-19T16:44:54.922Z,34.49
2023-05-19T16:47:21.379Z,35.41
2023-05-19T16:49:47.870Z,35.50
2023-05-19T16:52:14.377Z,36.56
2023-05-19T16:54:41.053Z,36.22
2023-05-19T16:57:07.612Z,36.82
2023-05-19T16:59:34.204Z,36.05
2023-05-19T17:02:00.905Z,35.55
2023-05-19T17:04:29.366Z,35.00
2023-05-19T17:06:57.277Z,34.13
2023-05-19T17:09:26.092Z,34.69
2023-05-19T17:11:53.698Z,34.84
2023-05-19T17:14:20.866Z,34.87
2023-05-19T17:16:47.955Z,35.45
2023-05-19T17:19:14.666Z,35.55
2023-05-19T17:21:41.546Z,36.17
2023-05-19T17:24:08.068Z,36.06
2023-05-19T17:26:34.626Z,35.52
2023-05-19T17:29:01.174Z,34.84
2023-05-19T17:31:27.672Z,33.90
2023-05-19T17:33:54.180Z,33.94
2023-05-19T17:36:21.751Z,34.23
2023-05-19T17:38:48.228Z,34.08
2023-05-19T17:41:14.756Z,34.58
2023-05-19T17:43:41.525Z,34.47
2023-05-19T17:46:08.813Z,35.48
2023-05-19T17:48:36.362Z,35.72
2023-05-19T17:51:05.807Z,36.96
2023-05-19T17:53:33.467Z,36.31
2023-05-19T17:56:01.920Z,36.46
2023-05-19T17:58:29.030Z,35.84
2023-05-19T18:00:56.350Z,35.94
2023-05-19T18:03:23.582Z,36.94
2023-05-19T18:05:51.116Z,36.69
2023-05-19T18:08:18.520Z,36.79
2023-05-19T18:10:46.122Z,36.81
2023-05-19T18:13:15.855Z,37.72
2023-05-19T18:15:42.421Z,37.87
2023-05-19T18:18:10.608Z,38.13
2023-05-19T18:20:44.194Z,38.50
2023-05-19T18:23:10.678Z,38.99
2023-05-19T18:25:37.445Z,39.50
2023-05-19T18:28:04.116Z,39.02
2023-05-19T18:30:30.739Z,39.21
2023-05-19T18:32:57.399Z,40.09
2023-05-19T18:35:24.027Z,39.79
2023-05-19T18:37:50.698Z,39.87
2023-05-19T18:40:17.463Z,40.18
2023-05-19T18:42:44.217Z,39.90
2023-05-19T18:45:11.621Z,40.51
2023-05-19T18:47:38.331Z,40.98
2023-05-19T18:50:05.394Z,41.12
2023-05-19T18:52:32.032Z,41.54
2023-05-19T18:55:00.789Z,41.55
2023-05-19T18:57:27.306Z,41.62
2023-05-19T18:59:53.773Z,41.78
2023-05-19T19:02:20.294Z,41.88
2023-05-19T19:04:46.798Z,42.58
2023-05-19T19:07:13.534Z,42.26
2023-05-19T19:09:43.624Z,42.92
2023-05-19T19:12:10.752Z,43.33
2023-05-19T19:14:37.356Z,43.10
2023-05-19T19:17:03.855Z,42.95
2023-05-19T19:19:30.594Z,43.62
2023-05-19T19:21:57.403Z,43.65
2023-05-19T19:24:23.885Z,44.10
2023-05-19T19:26:50.403Z,44.32
2023-05-19T19:29:18.167Z,44.18
2023-05-19T19:31:44.983Z,44.61
2023-05-19T19:34:11.791Z,44.19
2023-05-19T19:36:38.259Z,44.92
2023-05-19T19:39:04.780Z,44.42
2023-05-19T19:41:33.271Z,44.76
2023-05-19T19:43:59.790Z,45.06
2023-05-19T19:46:26.397Z,45.06
2023-05-19T19:48:56.517Z,44.81
2023-05-19T19:51:22.999Z,45.32
2023-05-19T19:53:49.546Z,46.06
2023-05-19T19:56:16.143Z,46.18
2023-05-19T19:58:42.693Z,46.24
2023-05-19T20:01:09.582Z,47.12
2023-05-19T20:03:36.482Z,47.28
2023-05-19T20:06:03.169Z,47.94
2023-05-19T20:08:29.673Z,47.94
2023-05-19T20:10:56.353Z,48.00
2023-05-19T20:13:22.973Z,48.82
2023-05-19T20:15:49.550Z,49.48
2023-05-19T20:18:16.124Z,49.84
2023-05-19T20:20:42.952Z,49.51
2023-05-19T20:23:09.627Z,49.36
2023-05-19T20:25:54.761Z,50.46
2023-05-19T20:28:29.260Z,52.22
2023-05-19T20:30:55.908Z,53.61
2023-05-19T20:33:22.530Z,55.07
2023-05-19T20:35:48.985Z,55.97
2023-05-19T20:38:15.534Z,57.03
2023-05-19T20:40:42.055Z,57.97
2023-05-19T20:43:08.568Z,58.94
2023-05-19T20:45:35.349Z,59.69
2023-05-19T20:48:03.724Z,60.11
2023-05-19T20:50:30.816Z,60.89
2023-05-19T20:52:57.467Z,61.05
2023-05-19T20:55:23.913Z,61.73
2023-05-19T20:57:50.496Z,62.08
2023-05-19T21:00:17.295Z,62.02
2023-05-19T21:02:44.345Z,62.62
2023-05-19T21:05:11.226Z,62.90
2023-05-19T21:07:37.840Z,63.17
2023-05-19T21:10:04.733Z,63.41
2023-05-19T21:12:34.064Z,63.08
2023-05-19T21:15:01.462Z,63.33
2023-05-19T21:17:27.988Z,63.20
2023-05-19T21:19:57.992Z,63.24
2023-05-19T21:22:27.970Z,63.37
2023-05-19T21:24:54.784Z,63.67
2023-05-19T21:27:21.391Z,63.87
2023-05-19T21:29:51.626Z,63.86
2023-05-19T21:32:18.175Z,63.96
2023-05-19T21:34:45.180Z,64.05
2023-05-19T21:37:12.016Z,63.92
2023-05-19T21:39:38.536Z,64.21
2023-05-19T21:42:06.369Z,64.02
2023-05-19T21:44:32.908Z,64.26
2023-05-19T21:46:59.552Z,63.94
2023-05-19T21:49:26.205Z,64.17
2023-05-19T21:51:52.690Z,64.18
2023-05-19T21:54:19.181Z,64.04
2023-05-19T21:56:45.686Z,64.14
2023-05-19T21:59:12.261Z,63.96
2023-05-19T22:01:38.952Z,63.73
2023-05-19T22:04:05.585Z,63.55
2023-05-19T22:06:32.341Z,63.64
2023-05-19T22:09:01.122Z,63.75
2023-05-19T22:11:27.751Z,63.06
2023-05-19T22:13:57.105Z,62.87
2023-05-19T22:16:23.782Z,63.20
2023-05-19T22:18:50.478Z,63.14
2023-05-19T22:21:17.023Z,63.15
2023-05-19T22:23:43.986Z,62.85
2023-05-19T22:26:10.508Z,63.44
2023-05-19T22:28:37.174Z,62.95
2023-05-19T22:31:03.983Z,62.82
2023-05-19T22:33:30.543Z,62.88
2023-05-19T22:35:57.553Z,63.43
2023-05-19T22:38:24.099Z,63.31
2023-05-19T22:40:51.008Z,63.29
2023-05-19T22:43:17.475Z,63.60
2023-05-19T22:45:43.999Z,63.81
2023-05-19T22:48:10.695Z,63.80
2023-05-19T22:50:37.314Z,63.87
2023-05-19T22:53:03.776Z,63.79
2023-05-19T22:55:30.364Z,64.27
2023-05-19T22:57:56.792Z,64.03
2023-05-19T23:00:23.313Z,64.54
2023-05-19T23:02:49.819Z,64.47
2023-05-19T23:05:16.328Z,64.77
2023-05-19T23:07:43.009Z,65.12
2023-05-19T23:10:09.862Z,65.29
2023-05-19T23:12:36.413Z,64.84
2023-05-19T23:15:03.649Z,65.30
2023-05-19T23:17:30.232Z,65.23
2023-05-19T23:19:56.814Z,65.45
2023-05-19T23:22:23.322Z,65.56
2023-05-19T23:24:49.956Z,65.25
2023-05-19T23:27:16.453Z,65.13
2023-05-19T23:29:47.158Z,65.78
2023-05-19T23:32:13.637Z,65.66
2023-05-19T23:34:40.154Z,66.17
2023-05-19T23:37:06.803Z,66.06
2023-05-19T23:39:33.354Z,66.15
2023-05-19T23:41:59.864Z,66.30
2023-05-19T23:44:27.316Z,66.61
2023-05-19T23:46:53.879Z,66.50
2023-05-19T23:49:20.447Z,66.17
2023-05-19T23:51:47.217Z,66.06
2023-05-19T23:54:13.694Z,66.45
2023-05-19T23:56:40.120Z,66.54
2023-05-19T23:59:06.621Z,66.40
